createdAt,value
2023-01-29T00:01:45.383Z,7.10
2023-01-29T00:04:15.722Z,5.27
2023-01-29T00:06:45.461Z,7.57
2023-01-29T00:09:14.451Z,6.77
2023-01-29T00:11:42.684Z,8.10
2023-01-29T00:14:10.977Z,6.20
2023-01-29T00:16:38.971Z,6.73
2023-01-29T00:19:06.783Z,7.93
2023-01-29T00:21:34.876Z,7.10
2023-01-29T00:24:03.982Z,8.27
2023-01-29T00:26:32.109Z,8.13
2023-01-29T00:29:00.842Z,7.17
2023-01-29T00:31:28.697Z,6.93
2023-01-29T00:33:56.807Z,4.73
2023-01-29T00:36:25.049Z,5.47
2023-01-29T00:38:58.919Z,6.47
2023-01-29T00:41:47.070Z,8.23
2023-01-29T00:44:32.773Z,7.70
2023-01-29T00:47:01.460Z,8.60
2023-01-29T00:49:30.316Z,8.07
2023-01-29T00:52:15.703Z,8.10
2023-01-29T00:54:43.550Z,8.83
2023-01-29T00:57:12.759Z,8.53
2023-01-29T00:59:40.587Z,8.33
2023-01-29T01:02:26.002Z,8.43
2023-01-29T01:04:54.252Z,8.03
2023-01-29T01:07:22.029Z,8.77
2023-01-29T01:10:10.518Z,6.00
2023-01-29T01:12:39.719Z,7.43
2023-01-29T01:15:08.307Z,7.93
2023-01-29T01:17:36.595Z,8.10
2023-01-29T01:20:04.413Z,7.30
2023-01-29T01:22:32.218Z,7.53
2023-01-29T01:25:00.160Z,7.47
2023-01-29T01:27:28.008Z,7.40
2023-01-29T01:29:57.097Z,7.90
2023-01-29T01:32:24.900Z,6.47
2023-01-29T01:34:53.522Z,6.93
2023-01-29T01:37:21.395Z,7.37
2023-01-29T01:39:50.767Z,7.37
2023-01-29T01:42:18.632Z,5.70
2023-01-29T01:44:53.120Z,6.87
2023-01-29T01:47:25.404Z,6.47
2023-01-29T01:49:54.304Z,5.70
2023-01-29T01:52:22.417Z,7.20
2023-01-29T01:54:51.259Z,5.30
2023-01-29T01:57:25.249Z,7.53
2023-01-29T01:59:58.005Z,6.67
2023-01-29T02:02:45.925Z,7.83
2023-01-29T02:05:32.646Z,6.03
2023-01-29T02:08:18.488Z,6.93
2023-01-29T02:10:47.246Z,6.97
2023-01-29T02:13:18.851Z,6.27
2023-01-29T02:15:48.914Z,6.90
2023-01-29T02:18:19.100Z,7.50
2023-01-29T02:20:50.697Z,6.87
2023-01-29T02:23:28.322Z,7.07
2023-01-29T02:26:21.666Z,7.13
2023-01-29T02:28:55.437Z,7.93
2023-01-29T02:31:27.894Z,7.77
2023-01-29T02:34:00.113Z,7.60
2023-01-29T02:36:32.947Z,7.50
2023-01-29T02:39:06.059Z,8.00
2023-01-29T02:41:38.541Z,7.33
2023-01-29T02:44:09.675Z,7.37
2023-01-29T02:46:40.263Z,7.10
2023-01-29T02:49:11.743Z,7.33
2023-01-29T02:51:43.662Z,6.73
2023-01-29T02:54:15.730Z,7.60
2023-01-29T02:56:49.691Z,7.33
2023-01-29T02:59:21.541Z,6.97
2023-01-29T03:01:50.488Z,7.70
2023-01-29T03:04:21.309Z,7.37
2023-01-29T03:06:51.453Z,6.83
2023-01-29T03:09:21.590Z,7.43
2023-01-29T03:11:52.655Z,7.30
2023-01-29T03:14:24.533Z,6.63
2023-01-29T03:16:53.509Z,6.93
2023-01-29T03:19:23.385Z,6.97
2023-01-29T03:21:59.274Z,7.20
2023-01-29T03:24:48.211Z,6.87
2023-01-29T03:27:35.655Z,6.70
2023-01-29T03:30:24.105Z,6.40
2023-01-29T03:32:53.582Z,7.03
2023-01-29T03:35:39.932Z,7.03
2023-01-29T03:38:10.141Z,7.40
2023-01-29T03:40:41.011Z,6.80
2023-01-29T03:43:12.180Z,7.00
2023-01-29T03:45:48.366Z,6.43
2023-01-29T03:48:18.894Z,7.43
2023-01-29T03:50:51.716Z,7.10
2023-01-29T03:53:23.617Z,8.73
2023-01-29T03:56:01.304Z,6.03
2023-01-29T03:58:35.655Z,7.33
2023-01-29T04:01:06.462Z,6.37
2023-01-29T04:03:35.621Z,5.97
2023-01-29T04:06:10.099Z,6.93
2023-01-29T04:08:46.024Z,6.63
2023-01-29T04:11:16.567Z,6.93
2023-01-29T04:13:45.226Z,6.17
2023-01-29T04:16:17.038Z,6.13
2023-01-29T04:18:45.939Z,5.83
2023-01-29T04:21:14.462Z,5.90
2023-01-29T04:23:42.484Z,5.90
2023-01-29T04:26:17.940Z,6.40
2023-01-29T04:28:53.126Z,6.10
2023-01-29T04:31:23.454Z,6.27
2023-01-29T04:33:54.497Z,5.43
2023-01-29T04:36:28.471Z,6.47
2023-01-29T04:39:01.376Z,5.90
2023-01-29T04:41:33.425Z,5.67
2023-01-29T04:44:04.366Z,6.33
2023-01-29T04:46:35.901Z,4.93
2023-01-29T04:49:12.280Z,6.10
2023-01-29T04:51:45.222Z,5.70
2023-01-29T04:54:17.600Z,5.33
2023-01-29T04:56:50.243Z,5.60
2023-01-29T04:59:23.281Z,5.63
2023-01-29T05:01:53.288Z,6.53
2023-01-29T05:04:21.673Z,5.60
2023-01-29T05:06:49.928Z,5.67
2023-01-29T05:09:18.362Z,5.43
2023-01-29T05:11:47.577Z,5.30
2023-01-29T05:14:17.588Z,6.13
2023-01-29T05:16:47.286Z,6.67
2023-01-29T05:19:16.976Z,6.07
2023-01-29T05:21:48.181Z,5.33
2023-01-29T05:24:17.123Z,6.10
2023-01-29T05:27:03.015Z,5.13
2023-01-29T05:29:31.018Z,6.17
2023-01-29T05:31:59.074Z,6.50
2023-01-29T05:34:28.249Z,5.70
2023-01-29T05:36:55.894Z,5.10
2023-01-29T05:39:23.631Z,5.73
2023-01-29T05:41:51.293Z,5.50
2023-01-29T05:44:18.997Z,4.80
2023-01-29T05:46:47.388Z,5.50
2023-01-29T05:49:15.282Z,5.00
2023-01-29T05:51:44.665Z,5.67
2023-01-29T05:54:12.640Z,5.87
2023-01-29T05:56:40.982Z,6.20
2023-01-29T05:59:08.857Z,5.47
2023-01-29T06:01:36.660Z,5.33
2023-01-29T06:04:04.389Z,5.67
2023-01-29T06:06:32.199Z,5.80
2023-01-29T06:09:01.672Z,5.93
2023-01-29T06:11:30.914Z,5.30
2023-01-29T06:13:59.225Z,6.40
2023-01-29T06:16:27.182Z,5.83
2023-01-29T06:18:54.927Z,6.50
2023-01-29T06:21:22.643Z,6.97
2023-01-29T06:23:50.567Z,6.80
2023-01-29T06:26:19.658Z,6.40
2023-01-29T06:28:50.101Z,5.93
2023-01-29T06:31:37.722Z,7.03
2023-01-29T06:34:06.452Z,7.60
2023-01-29T06:36:34.351Z,8.73
2023-01-29T06:39:02.434Z,8.47
2023-01-29T06:41:32.524Z,7.40
2023-01-29T06:44:00.188Z,6.87
2023-01-29T06:46:28.083Z,7.27
2023-01-29T06:48:58.757Z,7.13
2023-01-29T06:51:26.681Z,7.50
2023-01-29T06:53:56.520Z,7.63
2023-01-29T06:56:24.833Z,8.60
2023-01-29T06:58:54.236Z,7.67
2023-01-29T07:01:35.086Z,7.57
2023-01-29T07:04:04.265Z,7.63
2023-01-29T07:06:33.748Z,8.13
2023-01-29T07:09:01.512Z,8.77
2023-01-29T07:11:29.232Z,8.70
2023-01-29T07:13:58.551Z,8.67
2023-01-29T07:16:26.628Z,8.47
2023-01-29T07:18:54.886Z,9.33
2023-01-29T07:21:22.804Z,8.47
2023-01-29T07:23:50.531Z,8.47
2023-01-29T07:26:18.829Z,8.87
2023-01-29T07:28:46.826Z,9.40
2023-01-29T07:31:16.296Z,9.23
2023-01-29T07:33:44.667Z,8.87
2023-01-29T07:36:12.784Z,9.03
2023-01-29T07:38:40.510Z,9.23
2023-01-29T07:41:08.457Z,8.83
2023-01-29T07:43:36.384Z,8.93
2023-01-29T07:46:04.883Z,9.77
2023-01-29T07:48:34.133Z,9.13
2023-01-29T07:51:04.288Z,8.97
2023-01-29T07:53:32.100Z,10.03
2023-01-29T07:56:00.135Z,11.30
2023-01-29T07:58:28.121Z,9.23
2023-01-29T08:00:56.138Z,9.20
2023-01-29T08:03:24.175Z,9.70
2023-01-29T08:05:53.259Z,10.47
2023-01-29T08:08:21.242Z,9.23
2023-01-29T08:10:50.310Z,9.70
2023-01-29T08:13:18.220Z,9.10
2023-01-29T08:15:46.484Z,9.67
2023-01-29T08:18:14.929Z,8.93
2023-01-29T08:20:42.691Z,9.17
2023-01-29T08:23:13.958Z,8.80
2023-01-29T08:25:42.501Z,9.40
2023-01-29T08:28:11.982Z,10.17
2023-01-29T08:30:39.727Z,9.07
2023-01-29T08:33:08.195Z,10.33
2023-01-29T08:35:36.042Z,9.13
2023-01-29T08:38:04.482Z,9.13
2023-01-29T08:40:34.569Z,7.50
2023-01-29T08:43:03.537Z,9.03
2023-01-29T08:45:34.893Z,10.23
2023-01-29T08:48:03.865Z,8.80
2023-01-29T08:50:32.526Z,8.80
2023-01-29T08:53:01.199Z,8.70
2023-01-29T08:55:29.266Z,9.10
2023-01-29T08:57:58.820Z,9.23
2023-01-29T09:00:26.721Z,8.47
2023-01-29T09:02:54.580Z,8.57
2023-01-29T09:05:22.301Z,9.37
2023-01-29T09:07:52.116Z,9.47
2023-01-29T09:10:21.550Z,9.47
2023-01-29T09:12:49.359Z,10.20
2023-01-29T09:15:19.380Z,10.37
2023-01-29T09:17:47.344Z,9.00
2023-01-29T09:20:15.230Z,10.10
2023-01-29T09:22:43.310Z,9.20
2023-01-29T09:25:11.886Z,9.77
2023-01-29T09:27:39.948Z,8.70
2023-01-29T09:30:08.329Z,10.67
2023-01-29T09:32:52.614Z,9.00
2023-01-29T09:35:20.923Z,9.50
2023-01-29T09:37:48.954Z,9.17
2023-01-29T09:40:29.687Z,9.63
2023-01-29T09:43:00.210Z,10.30
2023-01-29T09:45:28.879Z,8.73
2023-01-29T09:48:00.166Z,12.70
2023-01-29T09:50:29.795Z,11.03
2023-01-29T09:53:00.221Z,11.70
2023-01-29T09:55:30.002Z,10.00
2023-01-29T09:57:59.343Z,10.70
2023-01-29T10:00:30.979Z,10.57
2023-01-29T10:03:16.693Z,10.87
2023-01-29T10:05:56.383Z,11.47
2023-01-29T10:08:51.201Z,10.90
2023-01-29T10:11:25.521Z,13.50
2023-01-29T10:13:58.377Z,10.10
2023-01-29T10:16:31.810Z,8.90
2023-01-29T10:19:05.596Z,10.00
2023-01-29T10:21:43.093Z,9.70
2023-01-29T10:24:18.815Z,10.13
2023-01-29T10:26:46.680Z,10.47
2023-01-29T10:29:17.477Z,11.33
2023-01-29T10:31:46.191Z,11.03
2023-01-29T10:34:15.891Z,10.63
2023-01-29T10:36:46.286Z,11.67
2023-01-29T10:39:17.045Z,11.90
2023-01-29T10:41:50.975Z,9.83
2023-01-29T10:44:31.721Z,10.17
2023-01-29T10:47:17.659Z,11.87
2023-01-29T10:49:52.728Z,13.90
2023-01-29T10:52:30.230Z,11.73
2023-01-29T10:55:05.615Z,13.93
2023-01-29T10:57:43.699Z,15.40
2023-01-29T11:00:13.538Z,11.77
2023-01-29T11:02:45.934Z,11.93
2023-01-29T11:05:19.999Z,11.47
2023-01-29T11:07:49.843Z,11.70
2023-01-29T11:10:21.976Z,11.17
2023-01-29T11:12:51.414Z,14.17
2023-01-29T11:15:20.967Z,13.80
2023-01-29T11:18:10.713Z,12.67
2023-01-29T11:20:38.516Z,12.97
2023-01-29T11:23:07.910Z,12.00
2023-01-29T11:25:35.940Z,11.33
2023-01-29T11:28:05.484Z,13.13
2023-01-29T11:30:35.210Z,12.17
2023-01-29T11:33:11.310Z,13.23
2023-01-29T11:35:39.106Z,11.80
2023-01-29T11:38:19.923Z,11.17
2023-01-29T11:40:47.754Z,12.07
2023-01-29T11:43:30.164Z,13.83
2023-01-29T11:46:00.138Z,16.10
2023-01-29T11:48:33.140Z,14.80
2023-01-29T11:51:02.275Z,11.47
2023-01-29T11:53:37.710Z,13.23
2023-01-29T11:56:07.001Z,12.60
2023-01-29T11:58:36.112Z,14.30
2023-01-29T12:01:04.536Z,12.90
2023-01-29T12:03:36.196Z,12.33
2023-01-29T12:06:07.883Z,12.40
2023-01-29T12:08:39.179Z,11.90
2023-01-29T12:11:11.202Z,13.87
2023-01-29T12:13:39.298Z,11.80
2023-01-29T12:16:12.185Z,11.60
2023-01-29T12:18:43.240Z,13.07
2023-01-29T12:21:14.967Z,11.33
2023-01-29T12:23:48.263Z,11.20
2023-01-29T12:26:17.926Z,10.57
2023-01-29T12:28:49.547Z,12.07
2023-01-29T12:31:23.256Z,12.23
2023-01-29T12:33:53.840Z,11.87
2023-01-29T12:36:25.607Z,11.30
2023-01-29T12:38:55.616Z,11.67
2023-01-29T12:41:30.289Z,10.87
2023-01-29T12:44:00.002Z,11.77
2023-01-29T12:46:29.731Z,11.43
2023-01-29T12:48:59.496Z,15.53
2023-01-29T12:51:31.194Z,13.57
2023-01-29T12:54:02.122Z,12.13
2023-01-29T12:56:31.623Z,12.37
2023-01-29T12:59:01.968Z,11.37
2023-01-29T13:01:32.626Z,11.63
2023-01-29T13:04:02.771Z,9.73
2023-01-29T13:06:33.237Z,10.37
2023-01-29T13:09:04.200Z,11.83
2023-01-29T13:11:35.411Z,11.77
2023-01-29T13:14:05.174Z,9.83
2023-01-29T13:16:34.875Z,12.37
2023-01-29T13:19:04.676Z,11.50
2023-01-29T13:21:35.097Z,9.60
2023-01-29T13:24:06.779Z,10.03
2023-01-29T13:26:34.756Z,11.37
2023-01-29T13:29:03.125Z,9.47
2023-01-29T13:31:32.160Z,7.47
2023-01-29T13:34:11.054Z,10.60
2023-01-29T13:36:42.551Z,10.17
2023-01-29T13:39:18.342Z,10.13
2023-01-29T13:41:46.241Z,10.30
2023-01-29T13:44:21.789Z,10.60
2023-01-29T13:46:51.231Z,10.50
2023-01-29T13:49:25.958Z,10.53
2023-01-29T13:51:54.082Z,10.43
2023-01-29T13:54:26.391Z,6.30
2023-01-29T13:57:01.982Z,10.20
2023-01-29T13:59:48.234Z,6.23
2023-01-29T14:02:26.401Z,9.87
2023-01-29T14:05:17.257Z,10.27
2023-01-29T14:07:51.280Z,9.30
2023-01-29T14:10:21.874Z,7.73
2023-01-29T14:12:54.419Z,7.23
2023-01-29T14:15:27.410Z,11.07
2023-01-29T14:17:58.659Z,10.03
2023-01-29T14:20:43.426Z,10.70
2023-01-29T14:23:21.701Z,12.10
2023-01-29T14:25:51.395Z,10.60
2023-01-29T14:28:22.765Z,10.27
2023-01-29T14:30:50.911Z,10.27
2023-01-29T14:33:25.601Z,10.23
2023-01-29T14:35:53.828Z,11.47
2023-01-29T14:38:24.111Z,11.50
2023-01-29T14:41:03.590Z,12.07
2023-01-29T14:43:31.423Z,10.93
2023-01-29T14:46:15.440Z,11.13
2023-01-29T14:48:48.744Z,11.83
2023-01-29T14:51:19.404Z,11.50
2023-01-29T14:53:51.913Z,11.97
2023-01-29T14:56:25.878Z,12.47
2023-01-29T14:58:57.231Z,13.37
2023-01-29T15:01:27.357Z,13.07
2023-01-29T15:04:00.276Z,11.87
2023-01-29T15:06:30.472Z,12.10
2023-01-29T15:09:03.927Z,10.23
2023-01-29T15:11:38.371Z,10.60
2023-01-29T15:14:19.024Z,12.07
2023-01-29T15:16:53.064Z,9.63
2023-01-29T15:19:24.976Z,10.67
2023-01-29T15:22:06.278Z,12.03
2023-01-29T15:24:34.342Z,11.70
2023-01-29T15:27:03.882Z,13.10
2023-01-29T15:29:31.949Z,12.87
2023-01-29T15:31:59.958Z,11.17
2023-01-29T15:34:27.876Z,10.57
2023-01-29T15:36:55.630Z,11.97
2023-01-29T15:39:24.797Z,11.67
2023-01-29T15:42:06.302Z,9.30
2023-01-29T15:44:35.941Z,11.40
2023-01-29T15:47:04.095Z,11.67
2023-01-29T15:49:32.915Z,10.10
2023-01-29T15:52:02.142Z,11.43
2023-01-29T15:54:31.455Z,10.80
2023-01-29T15:56:59.685Z,11.03
2023-01-29T15:59:28.233Z,11.07
2023-01-29T16:01:57.566Z,9.00
2023-01-29T16:04:28.972Z,8.80
2023-01-29T16:06:59.949Z,10.40
2023-01-29T16:09:28.790Z,6.73
2023-01-29T16:11:58.986Z,11.47
2023-01-29T16:14:34.755Z,12.23
2023-01-29T16:17:22.737Z,10.13
2023-01-29T16:19:56.552Z,10.43
2023-01-29T16:22:24.677Z,11.37
2023-01-29T16:24:53.432Z,10.60
2023-01-29T16:27:21.620Z,10.57
2023-01-29T16:29:49.389Z,11.07
2023-01-29T16:32:19.080Z,10.60
2023-01-29T16:34:48.786Z,8.87
2023-01-29T16:37:22.402Z,9.67
2023-01-29T16:39:50.918Z,9.87
2023-01-29T16:42:26.007Z,9.57
2023-01-29T16:44:55.614Z,7.53
2023-01-29T16:47:29.487Z,9.43
2023-01-29T16:49:58.516Z,10.67
2023-01-29T16:52:27.324Z,9.70
2023-01-29T16:55:00.177Z,10.87
2023-01-29T16:57:30.979Z,11.70
2023-01-29T17:00:00.217Z,8.77
2023-01-29T17:02:30.427Z,11.33
2023-01-29T17:05:00.113Z,10.53
2023-01-29T17:07:28.356Z,10.47
2023-01-29T17:09:58.719Z,10.47
2023-01-29T17:12:27.390Z,10.53
2023-01-29T17:14:56.371Z,11.50
2023-01-29T17:17:29.800Z,10.97
2023-01-29T17:19:59.080Z,12.23
2023-01-29T17:22:27.087Z,10.93
2023-01-29T17:24:55.065Z,11.30
2023-01-29T17:27:24.311Z,8.63
2023-01-29T17:29:52.756Z,10.87
2023-01-29T17:32:21.551Z,12.20
2023-01-29T17:34:50.632Z,11.17
2023-01-29T17:37:20.225Z,11.87
2023-01-29T17:39:50.653Z,10.50
2023-01-29T17:42:18.379Z,10.40
2023-01-29T17:44:46.234Z,10.47
2023-01-29T17:47:15.941Z,11.53
2023-01-29T17:49:44.186Z,10.87
2023-01-29T17:52:12.206Z,11.50
2023-01-29T17:54:41.511Z,12.07
2023-01-29T17:57:12.666Z,10.07
2023-01-29T17:59:40.692Z,11.87
2023-01-29T18:02:08.853Z,11.77
2023-01-29T18:04:56.494Z,11.33
2023-01-29T18:07:24.482Z,11.27
2023-01-29T18:09:53.860Z,10.47
2023-01-29T18:12:22.111Z,11.60
2023-01-29T18:14:50.746Z,11.10
2023-01-29T18:17:22.325Z,11.23
2023-01-29T18:19:50.378Z,12.27
2023-01-29T18:22:18.904Z,11.27
2023-01-29T18:24:46.736Z,9.67
2023-01-29T18:27:15.912Z,10.40
2023-01-29T18:29:43.739Z,10.70
2023-01-29T18:32:11.877Z,10.03
2023-01-29T18:34:41.267Z,11.40
2023-01-29T18:37:09.995Z,10.67
2023-01-29T18:39:39.083Z,9.50
2023-01-29T18:42:06.843Z,13.67
2023-01-29T18:44:36.371Z,7.87
2023-01-29T18:47:05.654Z,11.90
2023-01-29T18:49:33.302Z,8.80
2023-01-29T18:52:01.112Z,10.63
2023-01-29T18:54:29.569Z,11.87
2023-01-29T18:57:08.716Z,11.30
2023-01-29T18:59:43.895Z,10.83
2023-01-29T19:02:14.094Z,12.00
2023-01-29T19:04:42.289Z,6.67
2023-01-29T19:07:10.891Z,12.47
2023-01-29T19:09:38.854Z,10.93
2023-01-29T19:12:07.059Z,13.10
2023-01-29T19:14:35.208Z,12.40
2023-01-29T19:17:04.903Z,12.27
2023-01-29T19:19:32.940Z,14.67
2023-01-29T19:22:00.945Z,11.50
2023-01-29T19:24:28.674Z,13.83
2023-01-29T19:26:56.364Z,14.13
2023-01-29T19:29:24.239Z,12.97
2023-01-29T19:31:52.207Z,13.70
2023-01-29T19:34:21.382Z,13.27
2023-01-29T19:36:49.254Z,13.10
2023-01-29T19:39:17.685Z,11.43
2023-01-29T19:41:46.023Z,14.43
2023-01-29T19:44:15.497Z,13.77
2023-01-29T19:46:43.912Z,12.03
2023-01-29T19:49:11.779Z,12.67
2023-01-29T19:51:42.086Z,12.07
2023-01-29T19:54:10.655Z,10.23
2023-01-29T19:56:38.339Z,8.83
2023-01-29T19:59:07.472Z,14.33
2023-01-29T20:01:35.165Z,13.37
2023-01-29T20:04:02.815Z,12.63
2023-01-29T20:06:32.177Z,15.73
2023-01-29T20:09:02.958Z,12.03
2023-01-29T20:11:30.898Z,14.50
2023-01-29T20:13:59.010Z,12.27
2023-01-29T20:16:27.480Z,13.37
2023-01-29T20:18:55.472Z,14.17
2023-01-29T20:21:45.544Z,13.77
2023-01-29T20:24:15.281Z,13.40
2023-01-29T20:26:43.186Z,13.17
2023-01-29T20:29:11.570Z,14.73
2023-01-29T20:31:39.629Z,14.47
2023-01-29T20:34:08.894Z,13.87
2023-01-29T20:36:36.770Z,12.87
2023-01-29T20:39:04.826Z,11.27
2023-01-29T20:41:34.128Z,13.87
2023-01-29T20:44:01.946Z,14.63
2023-01-29T20:46:30.170Z,11.07
2023-01-29T20:48:58.368Z,12.57
2023-01-29T20:51:26.328Z,13.17
2023-01-29T20:53:55.494Z,12.20
2023-01-29T20:56:36.853Z,13.93
2023-01-29T20:59:11.535Z,14.13
2023-01-29T21:01:39.479Z,12.97
2023-01-29T21:04:07.142Z,13.47
2023-01-29T21:06:34.806Z,11.97
2023-01-29T21:09:02.726Z,11.50
2023-01-29T21:11:31.686Z,12.90
2023-01-29T21:13:59.569Z,12.83
2023-01-29T21:16:29.195Z,12.90
2023-01-29T21:18:58.258Z,13.73
2023-01-29T21:21:26.945Z,12.33
2023-01-29T21:23:55.580Z,13.87
2023-01-29T21:26:23.619Z,13.67
2023-01-29T21:28:51.403Z,14.13
2023-01-29T21:31:19.568Z,15.23
2023-01-29T21:33:48.759Z,15.23
2023-01-29T21:36:16.480Z,16.17
2023-01-29T21:38:44.415Z,13.90
2023-01-29T21:41:12.214Z,13.40
2023-01-29T21:43:39.345Z,14.80
2023-01-29T21:46:11.949Z,14.03
2023-01-29T21:48:40.890Z,14.73
2023-01-29T21:51:10.057Z,10.67
2023-01-29T21:53:37.907Z,13.67
2023-01-29T21:56:06.515Z,13.50
2023-01-29T21:58:35.559Z,13.40
2023-01-29T22:01:23.030Z,14.80
2023-01-29T22:03:51.407Z,14.47
2023-01-29T22:06:20.536Z,13.33
2023-01-29T22:08:49.719Z,15.13
2023-01-29T22:11:17.517Z,14.60
2023-01-29T22:13:45.276Z,15.53
2023-01-29T22:16:12.986Z,14.63
2023-01-29T22:18:40.956Z,16.30
2023-01-29T22:21:08.900Z,14.20
2023-01-29T22:23:38.093Z,14.67
2023-01-29T22:26:06.303Z,12.87
2023-01-29T22:28:34.079Z,12.03
2023-01-29T22:31:02.533Z,9.63
2023-01-29T22:33:30.612Z,13.20
2023-01-29T22:35:58.612Z,13.17
2023-01-29T22:38:26.546Z,10.67
2023-01-29T22:40:56.727Z,11.17
2023-01-29T22:43:26.039Z,9.17
2023-01-29T22:45:56.418Z,13.47
2023-01-29T22:48:24.557Z,11.53
2023-01-29T22:51:09.751Z,13.73
2023-01-29T22:53:37.909Z,12.87
2023-01-29T22:56:08.243Z,13.00
2023-01-29T22:58:36.185Z,10.83
2023-01-29T23:01:04.385Z,14.53
2023-01-29T23:03:32.326Z,14.30
2023-01-29T23:06:00.057Z,15.10
2023-01-29T23:08:27.892Z,12.73
2023-01-29T23:10:55.705Z,12.60
2023-01-29T23:13:25.173Z,15.40
2023-01-29T23:15:59.353Z,15.43
2023-01-29T23:18:27.699Z,13.60
2023-01-29T23:20:57.588Z,14.30
2023-01-29T23:23:25.258Z,12.17
2023-01-29T23:26:15.018Z,14.43
2023-01-29T23:28:44.182Z,15.07
2023-01-29T23:31:12.034Z,14.47
2023-01-29T23:33:39.812Z,17.87
2023-01-29T23:36:08.226Z,12.00
2023-01-29T23:38:35.943Z,10.73
2023-01-29T23:41:03.638Z,8.10
2023-01-29T23:43:31.622Z,6.40
2023-01-29T23:46:01.939Z,5.47
2023-01-29T23:48:29.633Z,8.97
2023-01-29T23:50:57.517Z,9.57
2023-01-29T23:53:25.211Z,9.97
2023-01-29T23:55:59.822Z,8.17
2023-01-29T23:58:27.869Z,10.23
